sensor_id;sensor_type;location;lat;lon;timestamp;P1;durP1;ratioP1;P2;durP2;ratioP2
1955;SDS011;978;48.314;11.562;2024-02-26T00:00:42;7.33;;;0.60;;
1955;SDS011;978;48.314;11.562;2024-02-26T00:03:11;7.13;;;0.43;;
1955;SDS011;978;48.314;11.562;2024-02-26T00:05:39;7.17;;;0.43;;
1955;SDS011;978;48.314;11.562;2024-02-26T00:08:07;7.97;;;0.77;;
1955;SDS011;978;48.314;11.562;2024-02-26T00:10:35;7.13;;;0.50;;
1955;SDS011;978;48.314;11.562;2024-02-26T00:13:01;7.30;;;0.50;;
1955;SDS011;978;48.314;11.562;2024-02-26T00:15:30;7.20;;;0.47;;
1955;SDS011;978;48.314;11.562;2024-02-26T00:17:56;7.13;;;0.50;;
1955;SDS011;978;48.314;11.562;2024-02-26T00:20:23;7.30;;;0.70;;
1955;SDS011;978;48.314;11.562;2024-02-26T00:22:51;7.47;;;0.70;;
1955;SDS011;978;48.314;11.562;2024-02-26T00:25:18;7.30;;;0.60;;
1955;SDS011;978;48.314;11.562;2024-02-26T00:27:45;7.33;;;0.50;;
1955;SDS011;978;48.314;11.562;2024-02-26T00:30:12;7.40;;;0.70;;
1955;SDS011;978;48.314;11.562;2024-02-26T00:32:40;7.23;;;0.50;;
1955;SDS011;978;48.314;11.562;2024-02-26T00:35:07;7.13;;;0.50;;
1955;SDS011;978;48.314;11.562;2024-02-26T00:37:35;7.23;;;0.50;;
1955;SDS011;978;48.314;11.562;2024-02-26T00:40:02;7.10;;;0.50;;
1955;SDS011;978;48.314;11.562;2024-02-26T00:42:29;7.20;;;0.50;;
1955;SDS011;978;48.314;11.562;2024-02-26T00:44:56;7.57;;;1.07;;
1955;SDS011;978;48.314;11.562;2024-02-26T00:47:23;7.07;;;0.40;;
1955;SDS011;978;48.314;11.562;2024-02-26T00:49:52;7.00;;;0.40;;
1955;SDS011;978;48.314;11.562;2024-02-26T00:52:19;7.03;;;0.50;;
1955;SDS011;978;48.314;11.562;2024-02-26T00:54:46;7.20;;;0.50;;
1955;SDS011;978;48.314;11.562;2024-02-26T00:57:13;7.10;;;0.60;;
1955;SDS011;978;48.314;11.562;2024-02-26T00:59:40;6.87;;;0.60;;
1955;SDS011;978;48.314;11.562;2024-02-26T01:02:07;7.00;;;0.50;;
1955;SDS011;978;48.314;11.562;2024-02-26T01:04:34;7.17;;;0.73;;
1955;SDS011;978;48.314;11.562;2024-02-26T01:07:02;6.90;;;0.53;;
1955;SDS011;978;48.314;11.562;2024-02-26T01:09:29;6.80;;;0.60;;
1955;SDS011;978;48.314;11.562;2024-02-26T01:11:56;7.70;;;1.70;;
1955;SDS011;978;48.314;11.562;2024-02-26T01:14:23;7.10;;;0.87;;
1955;SDS011;978;48.314;11.562;2024-02-26T01:16:49;6.90;;;0.50;;
1955;SDS011;978;48.314;11.562;2024-02-26T01:19:16;7.00;;;0.90;;
1955;SDS011;978;48.314;11.562;2024-02-26T01:21:43;6.77;;;0.40;;
1955;SDS011;978;48.314;11.562;2024-02-26T01:24:11;8.70;;;1.20;;
1955;SDS011;978;48.314;11.562;2024-02-26T01:26:38;7.10;;;0.70;;
1955;SDS011;978;48.314;11.562;2024-02-26T01:29:05;6.70;;;0.50;;
1955;SDS011;978;48.314;11.562;2024-02-26T01:31:32;6.77;;;0.80;;
1955;SDS011;978;48.314;11.562;2024-02-26T01:34:00;6.77;;;0.53;;
1955;SDS011;978;48.314;11.562;2024-02-26T01:36:27;6.67;;;0.50;;
1955;SDS011;978;48.314;11.562;2024-02-26T01:38:53;6.80;;;0.90;;
1955;SDS011;978;48.314;11.562;2024-02-26T01:41:22;6.80;;;0.90;;
1955;SDS011;978;48.314;11.562;2024-02-26T01:43:50;7.63;;;1.13;;
1955;SDS011;978;48.314;11.562;2024-02-26T01:46:17;6.70;;;0.93;;
1955;SDS011;978;48.314;11.562;2024-02-26T01:48:44;6.60;;;0.50;;
1955;SDS011;978;48.314;11.562;2024-02-26T01:51:14;6.47;;;0.50;;
1955;SDS011;978;48.314;11.562;2024-02-26T01:53:44;6.40;;;0.60;;
1955;SDS011;978;48.314;11.562;2024-02-26T01:56:11;6.50;;;0.50;;
1955;SDS011;978;48.314;11.562;2024-02-26T01:58:40;6.30;;;0.60;;
1955;SDS011;978;48.314;11.562;2024-02-26T02:01:07;6.70;;;0.90;;
1955;SDS011;978;48.314;11.562;2024-02-26T02:03:35;6.37;;;0.50;;
1955;SDS011;978;48.314;11.562;2024-02-26T02:06:02;6.30;;;0.50;;
1955;SDS011;978;48.314;11.562;2024-02-26T02:08:30;6.20;;;0.60;;
1955;SDS011;978;48.314;11.562;2024-02-26T02:11:00;6.20;;;0.50;;
1955;SDS011;978;48.314;11.562;2024-02-26T02:13:27;6.27;;;0.67;;
1955;SDS011;978;48.314;11.562;2024-02-26T02:15:57;6.30;;;0.50;;
1955;SDS011;978;48.314;11.562;2024-02-26T02:18:24;6.00;;;0.40;;
1955;SDS011;978;48.314;11.562;2024-02-26T02:20:52;6.17;;;0.50;;
1955;SDS011;978;48.314;11.562;2024-02-26T02:23:21;6.20;;;0.50;;
1955;SDS011;978;48.314;11.562;2024-02-26T02:25:48;6.30;;;0.60;;
1955;SDS011;978;48.314;11.562;2024-02-26T02:28:15;6.07;;;0.70;;
1955;SDS011;978;48.314;11.562;2024-02-26T02:30:42;5.97;;;0.57;;
1955;SDS011;978;48.314;11.562;2024-02-26T02:33:09;6.00;;;0.40;;
1955;SDS011;978;48.314;11.562;2024-02-26T02:35:37;6.03;;;0.50;;
1955;SDS011;978;48.314;11.562;2024-02-26T02:38:05;6.40;;;0.60;;
1955;SDS011;978;48.314;11.562;2024-02-26T02:40:32;6.00;;;0.50;;
1955;SDS011;978;48.314;11.562;2024-02-26T02:42:59;5.90;;;0.53;;
1955;SDS011;978;48.314;11.562;2024-02-26T02:45:27;6.93;;;0.80;;
1955;SDS011;978;48.314;11.562;2024-02-26T02:47:53;5.93;;;0.60;;
1955;SDS011;978;48.314;11.562;2024-02-26T02:50:20;5.97;;;0.50;;
1955;SDS011;978;48.314;11.562;2024-02-26T02:52:46;6.20;;;0.90;;
1955;SDS011;978;48.314;11.562;2024-02-26T02:55:16;5.90;;;0.50;;
1955;SDS011;978;48.314;11.562;2024-02-26T02:57:44;5.83;;;0.40;;
1955;SDS011;978;48.314;11.562;2024-02-26T03:00:11;5.90;;;0.57;;
1955;SDS011;978;48.314;11.562;2024-02-26T03:02:38;5.77;;;0.50;;
1955;SDS011;978;48.314;11.562;2024-02-26T03:05:05;6.20;;;1.03;;
1955;SDS011;978;48.314;11.562;2024-02-26T03:07:32;6.07;;;0.70;;
1955;SDS011;978;48.314;11.562;2024-02-26T03:09:59;5.80;;;0.50;;
1955;SDS011;978;48.314;11.562;2024-02-26T03:12:28;5.77;;;0.43;;
1955;SDS011;978;48.314;11.562;2024-02-26T03:14:56;5.80;;;0.40;;
1955;SDS011;978;48.314;11.562;2024-02-26T03:17:24;6.20;;;0.77;;
1955;SDS011;978;48.314;11.562;2024-02-26T03:19:51;6.03;;;0.90;;
1955;SDS011;978;48.314;11.562;2024-02-26T03:22:19;5.90;;;0.40;;
1955;SDS011;978;48.314;11.562;2024-02-26T03:24:46;6.10;;;1.03;;
1955;SDS011;978;48.314;11.562;2024-02-26T03:27:14;5.87;;;0.50;;
1955;SDS011;978;48.314;11.562;2024-02-26T03:29:44;5.80;;;0.50;;
1955;SDS011;978;48.314;11.562;2024-02-26T03:32:13;5.80;;;0.50;;
1955;SDS011;978;48.314;11.562;2024-02-26T03:34:39;5.87;;;0.60;;
1955;SDS011;978;48.314;11.562;2024-02-26T03:37:07;5.77;;;0.50;;
1955;SDS011;978;48.314;11.562;2024-02-26T03:39:36;5.70;;;0.50;;
1955;SDS011;978;48.314;11.562;2024-02-26T03:42:03;5.77;;;0.50;;
1955;SDS011;978;48.314;11.562;2024-02-26T03:44:30;5.90;;;0.80;;
1955;SDS011;978;48.314;11.562;2024-02-26T03:46:58;5.90;;;0.70;;
1955;SDS011;978;48.314;11.562;2024-02-26T03:49:25;5.80;;;0.40;;
1955;SDS011;978;48.314;11.562;2024-02-26T03:51:52;5.63;;;0.43;;
1955;SDS011;978;48.314;11.562;2024-02-26T03:54:19;5.77;;;0.50;;
1955;SDS011;978;48.314;11.562;2024-02-26T03:56:46;5.80;;;0.80;;
1955;SDS011;978;48.314;11.562;2024-02-26T03:59:12;5.80;;;0.63;;
1955;SDS011;978;48.314;11.562;2024-02-26T04:01:44;5.70;;;0.60;;
1955;SDS011;978;48.314;11.562;2024-02-26T04:04:12;5.70;;;0.50;;
1955;SDS011;978;48.314;11.562;2024-02-26T04:06:39;5.73;;;0.60;;
1955;SDS011;978;48.314;11.562;2024-02-26T04:09:10;5.70;;;0.60;;
1955;SDS011;978;48.314;11.562;2024-02-26T04:11:37;5.70;;;0.40;;
1955;SDS011;978;48.314;11.562;2024-02-26T04:14:03;8.17;;;1.07;;
1955;SDS011;978;48.314;11.562;2024-02-26T04:16:33;5.60;;;0.40;;
1955;SDS011;978;48.314;11.562;2024-02-26T04:19:00;5.60;;;0.40;;
1955;SDS011;978;48.314;11.562;2024-02-26T04:21:28;5.80;;;0.70;;
1955;SDS011;978;48.314;11.562;2024-02-26T04:23:55;5.70;;;0.67;;
1955;SDS011;978;48.314;11.562;2024-02-26T04:26:25;5.70;;;0.50;;
1955;SDS011;978;48.314;11.562;2024-02-26T04:28:52;5.70;;;0.50;;
1955;SDS011;978;48.314;11.562;2024-02-26T04:31:19;6.00;;;0.77;;
1955;SDS011;978;48.314;11.562;2024-02-26T04:33:46;5.70;;;0.40;;
1955;SDS011;978;48.314;11.562;2024-02-26T04:36:13;5.70;;;0.53;;
1955;SDS011;978;48.314;11.562;2024-02-26T04:38:41;6.30;;;0.70;;
1955;SDS011;978;48.314;11.562;2024-02-26T04:41:08;5.70;;;0.40;;
1955;SDS011;978;48.314;11.562;2024-02-26T04:43:35;5.77;;;0.83;;
1955;SDS011;978;48.314;11.562;2024-02-26T04:46:06;5.67;;;0.40;;
1955;SDS011;978;48.314;11.562;2024-02-26T04:48:33;5.80;;;0.80;;
1955;SDS011;978;48.314;11.562;2024-02-26T04:51:00;5.67;;;0.70;;
1955;SDS011;978;48.314;11.562;2024-02-26T04:53:28;5.60;;;0.50;;
1955;SDS011;978;48.314;11.562;2024-02-26T04:55:56;5.60;;;0.63;;
1955;SDS011;978;48.314;11.562;2024-02-26T04:58:23;5.80;;;0.93;;
1955;SDS011;978;48.314;11.562;2024-02-26T05:00:50;5.70;;;0.50;;
1955;SDS011;978;48.314;11.562;2024-02-26T05:03:17;5.63;;;0.57;;
1955;SDS011;978;48.314;11.562;2024-02-26T05:05:44;5.53;;;0.40;;
1955;SDS011;978;48.314;11.562;2024-02-26T05:08:11;6.07;;;1.20;;
1955;SDS011;978;48.314;11.562;2024-02-26T05:10:38;5.67;;;0.40;;
1955;SDS011;978;48.314;11.562;2024-02-26T05:13:07;6.03;;;1.33;;
1955;SDS011;978;48.314;11.562;2024-02-26T05:15:35;5.63;;;0.50;;
1955;SDS011;978;48.314;11.562;2024-02-26T05:18:02;5.67;;;0.50;;
1955;SDS011;978;48.314;11.562;2024-02-26T05:20:29;5.90;;;0.70;;
1955;SDS011;978;48.314;11.562;2024-02-26T05:22:56;5.60;;;0.50;;
1955;SDS011;978;48.314;11.562;2024-02-26T05:25:24;5.50;;;0.50;;
1955;SDS011;978;48.314;11.562;2024-02-26T05:27:51;6.10;;;1.03;;
1955;SDS011;978;48.314;11.562;2024-02-26T05:30:19;5.60;;;0.40;;
1955;SDS011;978;48.314;11.562;2024-02-26T05:32:46;6.10;;;1.23;;
1955;SDS011;978;48.314;11.562;2024-02-26T05:35:13;5.70;;;0.87;;
1955;SDS011;978;48.314;11.562;2024-02-26T05:37:41;5.70;;;0.50;;
1955;SDS011;978;48.314;11.562;2024-02-26T05:40:08;5.63;;;0.50;;
1955;SDS011;978;48.314;11.562;2024-02-26T05:42:35;5.80;;;0.40;;
1955;SDS011;978;48.314;11.562;2024-02-26T05:45:02;5.70;;;0.50;;
1955;SDS011;978;48.314;11.562;2024-02-26T05:47:32;5.70;;;0.70;;
1955;SDS011;978;48.314;11.562;2024-02-26T05:50:00;5.70;;;0.60;;
1955;SDS011;978;48.314;11.562;2024-02-26T05:52:26;5.70;;;0.40;;
1955;SDS011;978;48.314;11.562;2024-02-26T05:54:54;5.60;;;0.40;;
1955;SDS011;978;48.314;11.562;2024-02-26T05:57:21;5.90;;;0.80;;
1955;SDS011;978;48.314;11.562;2024-02-26T05:59:48;6.47;;;1.03;;
1955;SDS011;978;48.314;11.562;2024-02-26T06:02:15;5.70;;;0.50;;
1955;SDS011;978;48.314;11.562;2024-02-26T06:04:43;5.60;;;0.40;;
1955;SDS011;978;48.314;11.562;2024-02-26T06:07:11;5.60;;;0.50;;
1955;SDS011;978;48.314;11.562;2024-02-26T06:09:38;5.60;;;0.50;;
1955;SDS011;978;48.314;11.562;2024-02-26T06:12:06;5.60;;;0.50;;
1955;SDS011;978;48.314;11.562;2024-02-26T06:14:33;5.53;;;0.40;;
1955;SDS011;978;48.314;11.562;2024-02-26T06:16:59;5.60;;;0.50;;
1955;SDS011;978;48.314;11.562;2024-02-26T06:19:26;5.60;;;0.40;;
1955;SDS011;978;48.314;11.562;2024-02-26T06:21:56;5.70;;;0.50;;
1955;SDS011;978;48.314;11.562;2024-02-26T06:24:23;5.67;;;0.50;;
1955;SDS011;978;48.314;11.562;2024-02-26T06:26:50;6.30;;;0.97;;
1955;SDS011;978;48.314;11.562;2024-02-26T06:29:17;5.73;;;0.50;;
1955;SDS011;978;48.314;11.562;2024-02-26T06:31:44;5.87;;;0.70;;
1955;SDS011;978;48.314;11.562;2024-02-26T06:34:13;5.70;;;0.60;;
1955;SDS011;978;48.314;11.562;2024-02-26T06:36:40;5.70;;;0.50;;
1955;SDS011;978;48.314;11.562;2024-02-26T06:39:08;5.60;;;0.40;;
1955;SDS011;978;48.314;11.562;2024-02-26T06:41:35;5.60;;;0.40;;
1955;SDS011;978;48.314;11.562;2024-02-26T06:44:04;5.60;;;0.60;;
1955;SDS011;978;48.314;11.562;2024-02-26T06:46:31;5.50;;;0.40;;
1955;SDS011;978;48.314;11.562;2024-02-26T06:48:58;5.67;;;0.60;;
1955;SDS011;978;48.314;11.562;2024-02-26T06:51:26;5.63;;;0.67;;
1955;SDS011;978;48.314;11.562;2024-02-26T06:53:53;5.90;;;0.70;;
1955;SDS011;978;48.314;11.562;2024-02-26T06:56:22;5.50;;;0.50;;
1955;SDS011;978;48.314;11.562;2024-02-26T06:58:49;5.50;;;0.40;;
1955;SDS011;978;48.314;11.562;2024-02-26T07:01:16;5.50;;;0.50;;
1955;SDS011;978;48.314;11.562;2024-02-26T07:03:45;5.50;;;0.50;;
1955;SDS011;978;48.314;11.562;2024-02-26T07:06:12;5.47;;;0.47;;
1955;SDS011;978;48.314;11.562;2024-02-26T07:08:39;5.53;;;0.40;;
1955;SDS011;978;48.314;11.562;2024-02-26T07:11:07;5.60;;;0.57;;
1955;SDS011;978;48.314;11.562;2024-02-26T07:13:35;5.50;;;0.40;;
1955;SDS011;978;48.314;11.562;2024-02-26T07:16:02;6.43;;;1.13;;
1955;SDS011;978;48.314;11.562;2024-02-26T07:18:29;5.50;;;0.47;;
1955;SDS011;978;48.314;11.562;2024-02-26T07:20:56;5.47;;;0.50;;
1955;SDS011;978;48.314;11.562;2024-02-26T07:23:23;5.50;;;0.50;;
1955;SDS011;978;48.314;11.562;2024-02-26T07:25:50;5.50;;;0.60;;
1955;SDS011;978;48.314;11.562;2024-02-26T07:28:18;5.50;;;0.50;;
1955;SDS011;978;48.314;11.562;2024-02-26T07:30:46;5.50;;;0.43;;
1955;SDS011;978;48.314;11.562;2024-02-26T07:33:13;5.60;;;1.03;;
1955;SDS011;978;48.314;11.562;2024-02-26T07:35:40;5.50;;;0.40;;
1955;SDS011;978;48.314;11.562;2024-02-26T07:38:08;5.50;;;0.50;;
1955;SDS011;978;48.314;11.562;2024-02-26T07:40:35;5.50;;;0.40;;
1955;SDS011;978;48.314;11.562;2024-02-26T07:43:02;5.70;;;0.97;;
1955;SDS011;978;48.314;11.562;2024-02-26T07:45:29;5.50;;;0.50;;
1955;SDS011;978;48.314;11.562;2024-02-26T07:47:57;6.07;;;0.93;;
1955;SDS011;978;48.314;11.562;2024-02-26T07:50:25;5.70;;;0.80;;
1955;SDS011;978;48.314;11.562;2024-02-26T07:52:52;5.40;;;0.40;;
1955;SDS011;978;48.314;11.562;2024-02-26T07:55:19;5.47;;;0.40;;
1955;SDS011;978;48.314;11.562;2024-02-26T07:57:47;5.50;;;0.40;;
1955;SDS011;978;48.314;11.562;2024-02-26T08:00:16;6.00;;;0.93;;
1955;SDS011;978;48.314;11.562;2024-02-26T08:02:43;5.60;;;0.70;;
1955;SDS011;978;48.314;11.562;2024-02-26T08:05:12;5.50;;;0.50;;
1955;SDS011;978;48.314;11.562;2024-02-26T08:07:39;7.00;;;0.70;;
1955;SDS011;978;48.314;11.562;2024-02-26T08:10:06;6.30;;;0.80;;
1955;SDS011;978;48.314;11.562;2024-02-26T08:12:33;5.60;;;0.50;;
1955;SDS011;978;48.314;11.562;2024-02-26T08:15:00;5.60;;;0.50;;
1955;SDS011;978;48.314;11.562;2024-02-26T08:17:27;5.57;;;0.50;;
1955;SDS011;978;48.314;11.562;2024-02-26T08:19:54;5.70;;;0.87;;
1955;SDS011;978;48.314;11.562;2024-02-26T08:22:23;5.60;;;0.63;;
1955;SDS011;978;48.314;11.562;2024-02-26T08:24:50;5.50;;;0.40;;
1955;SDS011;978;48.314;11.562;2024-02-26T08:27:17;5.60;;;0.70;;
1955;SDS011;978;48.314;11.562;2024-02-26T08:29:43;5.50;;;0.50;;
1955;SDS011;978;48.314;11.562;2024-02-26T08:32:10;5.50;;;0.50;;
1955;SDS011;978;48.314;11.562;2024-02-26T08:34:37;5.53;;;0.50;;
1955;SDS011;978;48.314;11.562;2024-02-26T08:37:04;5.50;;;0.40;;
1955;SDS011;978;48.314;11.562;2024-02-26T08:39:33;5.60;;;0.73;;
1955;SDS011;978;48.314;11.562;2024-02-26T08:42:01;5.50;;;0.40;;
1955;SDS011;978;48.314;11.562;2024-02-26T08:44:28;5.50;;;0.40;;
1955;SDS011;978;48.314;11.562;2024-02-26T08:46:55;5.43;;;0.43;;
1955;SDS011;978;48.314;11.562;2024-02-26T08:49:22;5.50;;;0.50;;
1955;SDS011;978;48.314;11.562;2024-02-26T08:51:49;5.60;;;0.93;;
1955;SDS011;978;48.314;11.562;2024-02-26T08:54:16;5.70;;;0.70;;
1955;SDS011;978;48.314;11.562;2024-02-26T08:56:44;5.40;;;0.50;;
1955;SDS011;978;48.314;11.562;2024-02-26T08:59:11;5.37;;;0.50;;
1955;SDS011;978;48.314;11.562;2024-02-26T09:01:41;5.47;;;0.50;;
1955;SDS011;978;48.314;11.562;2024-02-26T09:04:08;5.43;;;0.50;;
1955;SDS011;978;48.314;11.562;2024-02-26T09:06:35;5.70;;;0.80;;
1955;SDS011;978;48.314;11.562;2024-02-26T09:09:02;5.50;;;0.67;;
1955;SDS011;978;48.314;11.562;2024-02-26T09:11:31;5.37;;;0.53;;
1955;SDS011;978;48.314;11.562;2024-02-26T09:13:59;5.43;;;0.50;;
1955;SDS011;978;48.314;11.562;2024-02-26T09:16:28;5.43;;;0.50;;
1955;SDS011;978;48.314;11.562;2024-02-26T09:18:56;5.60;;;0.77;;
1955;SDS011;978;48.314;11.562;2024-02-26T09:21:23;5.40;;;0.40;;
1955;SDS011;978;48.314;11.562;2024-02-26T09:23:51;5.40;;;0.40;;
1955;SDS011;978;48.314;11.562;2024-02-26T09:26:18;5.67;;;0.97;;
1955;SDS011;978;48.314;11.562;2024-02-26T09:28:45;5.43;;;0.50;;
1955;SDS011;978;48.314;11.562;2024-02-26T09:31:14;5.43;;;0.50;;
1955;SDS011;978;48.314;11.562;2024-02-26T09:33:42;5.50;;;0.50;;
1955;SDS011;978;48.314;11.562;2024-02-26T09:36:09;5.50;;;0.63;;
1955;SDS011;978;48.314;11.562;2024-02-26T09:38:36;5.40;;;0.40;;
1955;SDS011;978;48.314;11.562;2024-02-26T09:41:03;5.50;;;0.40;;
1955;SDS011;978;48.314;11.562;2024-02-26T09:43:32;5.70;;;1.00;;
1955;SDS011;978;48.314;11.562;2024-02-26T09:46:01;5.50;;;0.50;;
1955;SDS011;978;48.314;11.562;2024-02-26T09:48:30;5.47;;;0.50;;
1955;SDS011;978;48.314;11.562;2024-02-26T09:50:59;5.50;;;0.50;;
1955;SDS011;978;48.314;11.562;2024-02-26T09:53:27;5.43;;;0.50;;
1955;SDS011;978;48.314;11.562;2024-02-26T09:55:56;5.43;;;0.50;;
1955;SDS011;978;48.314;11.562;2024-02-26T09:58:24;5.43;;;0.50;;
1955;SDS011;978;48.314;11.562;2024-02-26T10:00:53;5.40;;;0.53;;
1955;SDS011;978;48.314;11.562;2024-02-26T10:03:24;5.57;;;0.50;;
1955;SDS011;978;48.314;11.562;2024-02-26T10:05:55;5.43;;;0.40;;
1955;SDS011;978;48.314;11.562;2024-02-26T10:08:24;5.43;;;0.50;;
1955;SDS011;978;48.314;11.562;2024-02-26T10:10:53;5.47;;;0.40;;
1955;SDS011;978;48.314;11.562;2024-02-26T10:13:21;5.43;;;0.50;;
1955;SDS011;978;48.314;11.562;2024-02-26T10:15:48;5.47;;;0.47;;
1955;SDS011;978;48.314;11.562;2024-02-26T10:18:15;5.57;;;0.70;;
1955;SDS011;978;48.314;11.562;2024-02-26T10:20:42;5.50;;;0.50;;
1955;SDS011;978;48.314;11.562;2024-02-26T10:23:27;5.43;;;0.50;;
1955;SDS011;978;48.314;11.562;2024-02-26T10:25:54;5.43;;;0.40;;
1955;SDS011;978;48.314;11.562;2024-02-26T10:28:22;5.40;;;0.40;;
1955;SDS011;978;48.314;11.562;2024-02-26T10:30:50;5.40;;;0.40;;
1955;SDS011;978;48.314;11.562;2024-02-26T10:33:19;5.43;;;0.53;;
1955;SDS011;978;48.314;11.562;2024-02-26T10:35:46;5.40;;;0.50;;
1955;SDS011;978;48.314;11.562;2024-02-26T10:38:13;5.50;;;0.70;;
1955;SDS011;978;48.314;11.562;2024-02-26T10:40:46;5.40;;;0.50;;
1955;SDS011;978;48.314;11.562;2024-02-26T10:43:15;5.37;;;0.50;;
1955;SDS011;978;48.314;11.562;2024-02-26T10:45:43;5.43;;;0.50;;
1955;SDS011;978;48.314;11.562;2024-02-26T10:48:12;5.40;;;0.50;;
1955;SDS011;978;48.314;11.562;2024-02-26T10:50:40;5.80;;;0.90;;
1955;SDS011;978;48.314;11.562;2024-02-26T10:53:10;5.40;;;0.40;;
1955;SDS011;978;48.314;11.562;2024-02-26T10:55:43;5.47;;;0.40;;
1955;SDS011;978;48.314;11.562;2024-02-26T10:58:14;5.40;;;0.40;;
1955;SDS011;978;48.314;11.562;2024-02-26T11:00:43;5.43;;;0.40;;
1955;SDS011;978;48.314;11.562;2024-02-26T11:03:12;5.47;;;0.43;;
1955;SDS011;978;48.314;11.562;2024-02-26T11:05:41;5.47;;;0.50;;
1955;SDS011;978;48.314;11.562;2024-02-26T11:08:10;5.50;;;0.60;;
1955;SDS011;978;48.314;11.562;2024-02-26T11:10:38;5.43;;;0.57;;
1955;SDS011;978;48.314;11.562;2024-02-26T11:13:09;5.90;;;0.93;;
1955;SDS011;978;48.314;11.562;2024-02-26T11:15:38;5.40;;;0.50;;
1955;SDS011;978;48.314;11.562;2024-02-26T11:18:06;5.47;;;0.40;;
1955;SDS011;978;48.314;11.562;2024-02-26T11:20:34;5.40;;;0.40;;
1955;SDS011;978;48.314;11.562;2024-02-26T11:23:06;5.50;;;0.73;;
1955;SDS011;978;48.314;11.562;2024-02-26T11:25:33;5.40;;;0.40;;
1955;SDS011;978;48.314;11.562;2024-02-26T11:28:05;5.40;;;0.50;;
1955;SDS011;978;48.314;11.562;2024-02-26T11:30:35;5.47;;;0.70;;
1955;SDS011;978;48.314;11.562;2024-02-26T11:33:06;5.47;;;0.50;;
1955;SDS011;978;48.314;11.562;2024-02-26T11:35:35;5.60;;;0.87;;
1955;SDS011;978;48.314;11.562;2024-02-26T11:38:02;5.40;;;0.50;;
1955;SDS011;978;48.314;11.562;2024-02-26T11:40:31;5.43;;;0.50;;
1955;SDS011;978;48.314;11.562;2024-02-26T11:42:59;5.40;;;0.43;;
1955;SDS011;978;48.314;11.562;2024-02-26T11:45:48;5.40;;;0.40;;
1955;SDS011;978;48.314;11.562;2024-02-26T11:48:20;5.50;;;0.60;;
1955;SDS011;978;48.314;11.562;2024-02-26T11:50:49;5.70;;;0.80;;
1955;SDS011;978;48.314;11.562;2024-02-26T11:53:23;5.40;;;0.57;;
1955;SDS011;978;48.314;11.562;2024-02-26T11:58:46;5.40;;;0.40;;
1955;SDS011;978;48.314;11.562;2024-02-26T12:04:11;5.40;;;0.50;;
1955;SDS011;978;48.314;11.562;2024-02-26T12:06:40;5.40;;;0.47;;
1955;SDS011;978;48.314;11.562;2024-02-26T12:09:11;5.43;;;0.43;;
1955;SDS011;978;48.314;11.562;2024-02-26T12:11:41;5.43;;;0.50;;
1955;SDS011;978;48.314;11.562;2024-02-26T12:14:10;5.40;;;0.40;;
1955;SDS011;978;48.314;11.562;2024-02-26T12:16:37;5.37;;;0.50;;
1955;SDS011;978;48.314;11.562;2024-02-26T12:19:06;5.40;;;0.50;;
1955;SDS011;978;48.314;11.562;2024-02-26T12:21:34;5.97;;;0.67;;
1955;SDS011;978;48.314;11.562;2024-02-26T12:24:10;5.33;;;0.50;;
1955;SDS011;978;48.314;11.562;2024-02-26T12:26:38;5.40;;;0.70;;
1955;SDS011;978;48.314;11.562;2024-02-26T12:29:05;6.50;;;1.07;;
1955;SDS011;978;48.314;11.562;2024-02-26T12:31:32;6.30;;;1.07;;
1955;SDS011;978;48.314;11.562;2024-02-26T12:34:02;5.40;;;0.50;;
1955;SDS011;978;48.314;11.562;2024-02-26T12:36:31;5.33;;;0.40;;
1955;SDS011;978;48.314;11.562;2024-02-26T12:38:59;5.50;;;0.63;;
1955;SDS011;978;48.314;11.562;2024-02-26T12:41:27;5.40;;;0.50;;
1955;SDS011;978;48.314;11.562;2024-02-26T12:43:55;5.60;;;0.63;;
1955;SDS011;978;48.314;11.562;2024-02-26T12:46:22;5.40;;;0.50;;
1955;SDS011;978;48.314;11.562;2024-02-26T12:48:49;5.40;;;0.50;;
1955;SDS011;978;48.314;11.562;2024-02-26T12:51:16;5.40;;;0.53;;
1955;SDS011;978;48.314;11.562;2024-02-26T12:53:45;5.50;;;0.60;;
1955;SDS011;978;48.314;11.562;2024-02-26T12:56:15;5.40;;;0.50;;
1955;SDS011;978;48.314;11.562;2024-02-26T12:58:42;5.40;;;0.50;;
1955;SDS011;978;48.314;11.562;2024-02-26T13:01:14;5.37;;;0.50;;
1955;SDS011;978;48.314;11.562;2024-02-26T13:03:42;5.40;;;0.40;;
1955;SDS011;978;48.314;11.562;2024-02-26T13:06:09;5.70;;;1.03;;
1955;SDS011;978;48.314;11.562;2024-02-26T13:08:37;5.40;;;0.50;;
1955;SDS011;978;48.314;11.562;2024-02-26T13:11:05;5.40;;;0.50;;
1955;SDS011;978;48.314;11.562;2024-02-26T13:13:32;5.50;;;0.70;;
1955;SDS011;978;48.314;11.562;2024-02-26T13:16:02;5.33;;;0.40;;
1955;SDS011;978;48.314;11.562;2024-02-26T13:18:31;5.37;;;0.40;;
1955;SDS011;978;48.314;11.562;2024-02-26T13:21:11;5.30;;;0.50;;
1955;SDS011;978;48.314;11.562;2024-02-26T13:23:41;5.40;;;0.50;;
1955;SDS011;978;48.314;11.562;2024-02-26T13:26:11;5.80;;;1.03;;
1955;SDS011;978;48.314;11.562;2024-02-26T13:28:39;5.50;;;0.60;;
1955;SDS011;978;48.314;11.562;2024-02-26T13:31:06;5.37;;;0.50;;
1955;SDS011;978;48.314;11.562;2024-02-26T13:33:35;5.60;;;0.67;;
1955;SDS011;978;48.314;11.562;2024-02-26T13:36:02;5.37;;;0.40;;
1955;SDS011;978;48.314;11.562;2024-02-26T13:38:30;5.40;;;0.40;;
1955;SDS011;978;48.314;11.562;2024-02-26T13:40:56;5.43;;;0.50;;
1955;SDS011;978;48.314;11.562;2024-02-26T13:43:25;6.20;;;0.80;;
1955;SDS011;978;48.314;11.562;2024-02-26T13:45:52;5.30;;;0.50;;
1955;SDS011;978;48.314;11.562;2024-02-26T13:48:18;5.40;;;0.50;;
1955;SDS011;978;48.314;11.562;2024-02-26T13:50:45;5.40;;;0.60;;
1955;SDS011;978;48.314;11.562;2024-02-26T13:53:12;5.40;;;0.50;;
1955;SDS011;978;48.314;11.562;2024-02-26T13:55:39;5.60;;;0.70;;
1955;SDS011;978;48.314;11.562;2024-02-26T13:58:08;5.40;;;0.50;;
1955;SDS011;978;48.314;11.562;2024-02-26T14:00:39;5.50;;;0.50;;
1955;SDS011;978;48.314;11.562;2024-02-26T14:03:08;5.60;;;1.13;;
1955;SDS011;978;48.314;11.562;2024-02-26T14:05:35;5.30;;;0.47;;
1955;SDS011;978;48.314;11.562;2024-02-26T14:08:02;5.37;;;0.40;;
1955;SDS011;978;48.314;11.562;2024-02-26T14:10:32;5.70;;;0.70;;
1955;SDS011;978;48.314;11.562;2024-02-26T14:12:59;5.37;;;0.50;;
1955;SDS011;978;48.314;11.562;2024-02-26T14:15:26;5.43;;;0.73;;
1955;SDS011;978;48.314;11.562;2024-02-26T14:17:55;5.40;;;0.50;;
1955;SDS011;978;48.314;11.562;2024-02-26T14:20:22;5.43;;;0.60;;
1955;SDS011;978;48.314;11.562;2024-02-26T14:22:49;5.30;;;0.40;;
1955;SDS011;978;48.314;11.562;2024-02-26T14:25:19;5.93;;;0.90;;
1955;SDS011;978;48.314;11.562;2024-02-26T14:27:46;5.30;;;0.40;;
1955;SDS011;978;48.314;11.562;2024-02-26T14:30:14;5.37;;;0.50;;
1955;SDS011;978;48.314;11.562;2024-02-26T14:32:41;7.40;;;1.23;;
1955;SDS011;978;48.314;11.562;2024-02-26T14:35:10;5.63;;;1.03;;
1955;SDS011;978;48.314;11.562;2024-02-26T14:37:39;5.37;;;0.40;;
1955;SDS011;978;48.314;11.562;2024-02-26T14:40:06;5.53;;;0.90;;
1955;SDS011;978;48.314;11.562;2024-02-26T14:42:34;5.37;;;0.40;;
1955;SDS011;978;48.314;11.562;2024-02-26T14:45:01;5.97;;;0.90;;
1955;SDS011;978;48.314;11.562;2024-02-26T14:47:31;5.30;;;0.50;;
1955;SDS011;978;48.314;11.562;2024-02-26T14:49:57;5.37;;;0.50;;
1955;SDS011;978;48.314;11.562;2024-02-26T14:52:26;5.80;;;1.20;;
1955;SDS011;978;48.314;11.562;2024-02-26T14:54:53;5.60;;;1.27;;
1955;SDS011;978;48.314;11.562;2024-02-26T14:57:21;5.77;;;1.53;;
1955;SDS011;978;48.314;11.562;2024-02-26T14:59:47;8.60;;;0.83;;
1955;SDS011;978;48.314;11.562;2024-02-26T15:02:15;5.37;;;0.70;;
1955;SDS011;978;48.314;11.562;2024-02-26T15:04:42;5.60;;;0.90;;
1955;SDS011;978;48.314;11.562;2024-02-26T15:07:10;5.27;;;0.40;;
1955;SDS011;978;48.314;11.562;2024-02-26T15:09:38;5.40;;;0.70;;
1955;SDS011;978;48.314;11.562;2024-02-26T15:12:06;5.80;;;0.70;;
1955;SDS011;978;48.314;11.562;2024-02-26T15:14:33;6.03;;;1.33;;
1955;SDS011;978;48.314;11.562;2024-02-26T15:17:00;6.17;;;0.80;;
1955;SDS011;978;48.314;11.562;2024-02-26T15:19:29;5.50;;;1.03;;
1955;SDS011;978;48.314;11.562;2024-02-26T15:21:56;5.27;;;0.40;;
1955;SDS011;978;48.314;11.562;2024-02-26T15:24:23;5.30;;;0.50;;